Startpagina
METAR-TAF:

METAR-TAF

Vliegvelden :

Luchthaven Larnaca

Larnaca, Cyprus

breedte: 34-53N, lengte: 033-38E, hoogte: 2 m

Actueel weer

Dit bericht is 32 minuten geleden gemaakt, om 23:00 UTC
Wind 5 kt uit het oosten
Temperatuur 22°C
Vochtigheid 100%
Druk 1009 hPa
Zicht 10 km of meer
geen wolken onder 1500 m en geen cumulonimbus

METAR: LCLK 262300Z 08005KT CAVOK 22/22 Q1009 NOSIG

Tijdstip: 02:32 (23:32 UTC)

Verwachting

Dit bericht is 6 uur en het 2 minuten geleden gemaakt, om 17:30 UTC
Verwachting geldig van 26 om 18 UTC tot 27 om 18 UTC
Wind 7 kt uit het noordnoordwesten
Zicht 10 km of meer
Weinig wolken op 2500 ft
Wijzigt naar
van 27 om 08 UTC tot 27 om 10 UTC
Wind 10 kt uit het zuidzuidoosten
Wijzigt naar
van 27 om 12 UTC tot 27 om 14 UTC
Wind 12 kt uit het zuidzuidwesten

TAF: LCLK 261730Z 2618/2718 34007KT 9999 FEW025 BECMG 2708/2710 15010KT BECMG 2712/2714 21012KT

Waarnemingen en weersverwachtingen van meer dan 4000 vliegvelden (METAR en TAF).

De beschikbare stations zijn de gele en rode punten op de kaart.

Ga met uw muis naar het station om de naam te zien.

Klik dan om waarnemingen en weersverwachtingen te zien.

kaart wijzigen: klik op de groene knoppen met een zwart kruis om in te zoomen, op de groene knop met een streepje om uit te zoomen of op de groene pijlen voor aangrenzende kaarten.


METAR-TAF: